mdhn weather

Juancho Enriquillo Airport
Barahona, Barahona Province, Dominican Republic

Public forecast

Using degrees Celsius for public forecast. Weather courtesy of forecast.io.

Closest aviation weather report (METAR) to Juancho Enriquillo Airport

Report is more than 6 hours old.

Closest report is Maria Montez International Airport, 24.3 nm (45.0 km) NNE. Retrieved 2020/03/31 18:00 UTC (14 hours ago):

MDBH 311800Z 13016KT 9999 FEW024 29/21 Q1013

Closest aviation forecast (TAF) to Juancho Enriquillo Airport

Closest forecast is Maria Montez International Airport, 24.3 nm (45.0 km) NNE. Retrieved 2020/04/01 06:14 UTC (2 hours ago):

TAF MDBH 010400Z 0106/0206 13006KT 9999 SCT020